createdAt,value
2022-07-26T00:02:03.308Z,66.50
2022-07-26T00:07:07.186Z,67.10
2022-07-26T00:12:10.756Z,66.80
2022-07-26T00:17:14.650Z,66.80
2022-07-26T00:22:17.168Z,67.10
2022-07-26T00:27:19.463Z,67.20
2022-07-26T00:32:23.342Z,67.50
2022-07-26T00:37:25.869Z,67.90
2022-07-26T00:42:28.242Z,67.80
2022-07-26T00:47:32.275Z,68.00
2022-07-26T00:52:34.879Z,69.30
2022-07-26T00:57:38.225Z,68.30
2022-07-26T01:02:43.189Z,68.50
2022-07-26T01:07:46.723Z,68.90
2022-07-26T01:12:49.263Z,68.90
2022-07-26T01:17:53.342Z,69.20
2022-07-26T01:22:57.094Z,69.70
2022-07-26T01:27:59.428Z,70.00
2022-07-26T01:33:02.031Z,70.00
2022-07-26T01:38:09.992Z,70.20
2022-07-26T01:43:12.507Z,69.30
2022-07-26T01:48:15.142Z,70.00
2022-07-26T01:53:18.901Z,70.60
2022-07-26T01:58:21.396Z,71.00
2022-07-26T02:03:23.815Z,70.90
2022-07-26T02:08:27.684Z,71.10
2022-07-26T02:13:32.079Z,71.60
2022-07-26T02:18:34.646Z,71.60
2022-07-26T02:23:41.554Z,71.40
2022-07-26T02:28:44.572Z,71.60
2022-07-26T02:33:46.906Z,71.50
2022-07-26T02:38:50.646Z,71.50
2022-07-26T02:43:53.064Z,72.00
2022-07-26T02:48:55.500Z,71.80
2022-07-26T02:53:59.354Z,72.10
2022-07-26T02:59:01.694Z,72.40
2022-07-26T03:04:04.460Z,72.30
2022-07-26T03:09:08.394Z,72.50
2022-07-26T03:14:11.214Z,72.40
2022-07-26T03:19:13.957Z,71.90
2022-07-26T03:24:17.782Z,72.10
2022-07-26T03:29:20.182Z,72.50
2022-07-26T03:34:22.597Z,72.50
2022-07-26T03:39:26.256Z,72.50
2022-07-26T03:44:28.631Z,72.50
2022-07-26T03:49:30.980Z,72.30
2022-07-26T03:54:34.739Z,72.50
2022-07-26T03:59:37.087Z,72.60
2022-07-26T04:04:39.509Z,72.70
2022-07-26T04:09:43.677Z,73.00
2022-07-26T04:14:46.049Z,73.50
2022-07-26T04:19:48.388Z,73.50
2022-07-26T04:24:52.169Z,73.30
2022-07-26T04:29:54.607Z,73.20
2022-07-26T04:34:56.949Z,73.00
2022-07-26T04:40:00.796Z,73.10
2022-07-26T04:45:08.034Z,73.10
2022-07-26T04:50:11.351Z,72.90
2022-07-26T04:55:15.473Z,72.90
2022-07-26T05:00:22.207Z,73.20
2022-07-26T05:05:27.592Z,73.30
2022-07-26T05:10:33.192Z,73.40
2022-07-26T05:15:36.565Z,73.70
2022-07-26T05:20:39.586Z,73.60
2022-07-26T05:25:43.424Z,73.20
2022-07-26T05:30:46.053Z,73.50
2022-07-26T05:35:48.514Z,73.30
2022-07-26T05:40:52.341Z,73.20
2022-07-26T05:45:56.415Z,73.90
2022-07-26T05:50:59.592Z,72.80
2022-07-26T05:56:03.535Z,72.40
2022-07-26T06:01:06.256Z,72.50
2022-07-26T06:06:08.701Z,72.70
2022-07-26T06:11:12.472Z,73.20
2022-07-26T06:16:15.022Z,73.80
2022-07-26T06:21:17.343Z,73.80
2022-07-26T06:26:21.239Z,73.30
2022-07-26T06:31:23.652Z,73.00
2022-07-26T06:36:30.271Z,72.80
2022-07-26T06:41:35.300Z,72.50
2022-07-26T06:46:37.778Z,72.10
2022-07-26T06:51:40.282Z,71.90
2022-07-26T06:56:44.363Z,71.60
2022-07-26T07:01:55.525Z,71.80
2022-07-26T07:07:07.133Z,71.50
2022-07-26T07:12:12.366Z,69.90
2022-07-26T07:17:20.486Z,69.40
2022-07-26T07:22:24.822Z,68.20
2022-07-26T07:27:29.950Z,68.50
2022-07-26T07:32:39.372Z,68.80
2022-07-26T07:37:53.823Z,69.30
2022-07-26T07:43:00.302Z,69.80
2022-07-26T07:48:07.647Z,70.40
2022-07-26T07:53:14.170Z,70.20
2022-07-26T07:58:25.537Z,70.20
2022-07-26T08:03:38.740Z,69.50
2022-07-26T08:08:42.163Z,69.60
2022-07-26T08:13:53.823Z,68.00
2022-07-26T08:19:00.086Z,64.40
2022-07-26T08:24:06.569Z,64.50
2022-07-26T08:29:11.456Z,63.00
2022-07-26T08:34:20.705Z,59.70
2022-07-26T08:39:25.130Z,59.00
2022-07-26T08:44:29.407Z,59.10
2022-07-26T08:49:32.110Z,59.30
2022-07-26T08:54:35.351Z,61.00
2022-07-26T08:59:41.933Z,60.60
2022-07-26T09:04:45.245Z,59.00
2022-07-26T09:09:59.591Z,58.20
2022-07-26T09:15:07.629Z,57.50
2022-07-26T09:20:12.856Z,58.20
2022-07-26T09:25:22.125Z,58.40
2022-07-26T09:30:26.636Z,57.60
2022-07-26T09:35:50.364Z,56.40
2022-07-26T09:40:53.181Z,55.30
2022-07-26T09:46:07.895Z,54.00
2022-07-26T09:51:10.664Z,51.30
2022-07-26T09:56:14.314Z,52.70
2022-07-26T10:01:18.628Z,51.80
2022-07-26T10:06:25.037Z,51.00
2022-07-26T10:11:42.454Z,51.00
2022-07-26T10:16:46.373Z,51.20
2022-07-26T10:21:49.989Z,52.50
2022-07-26T10:26:52.516Z,52.70
2022-07-26T10:32:16.343Z,52.50
2022-07-26T10:37:26.079Z,50.90
2022-07-26T10:42:43.595Z,51.60
2022-07-26T10:48:15.643Z,50.80
2022-07-26T10:53:19.673Z,49.10
2022-07-26T10:58:23.280Z,51.30
2022-07-26T11:03:38.710Z,51.20
2022-07-26T11:08:46.005Z,50.20
2022-07-26T11:13:50.552Z,51.00
2022-07-26T11:18:54.466Z,50.00
2022-07-26T11:24:03.168Z,48.70
2022-07-26T11:29:06.398Z,47.80
2022-07-26T11:34:21.446Z,47.70
2022-07-26T11:39:25.227Z,47.00
2022-07-26T11:44:28.974Z,48.00
2022-07-26T11:49:52.802Z,46.70
2022-07-26T11:54:55.493Z,45.90
2022-07-26T11:59:59.212Z,45.80
2022-07-26T12:05:16.881Z,45.60
2022-07-26T12:10:19.653Z,45.40
2022-07-26T12:15:22.225Z,45.70
2022-07-26T12:20:26.103Z,44.90
2022-07-26T12:25:29.484Z,44.20
2022-07-26T12:30:36.239Z,44.90
2022-07-26T12:35:40.552Z,44.60
2022-07-26T12:40:43.050Z,44.80
2022-07-26T12:45:45.586Z,45.00
2022-07-26T12:50:49.555Z,44.80
2022-07-26T12:55:52.016Z,44.30
2022-07-26T13:00:54.407Z,44.80
2022-07-26T13:05:58.223Z,44.80
2022-07-26T13:11:00.636Z,44.80
2022-07-26T13:16:06.693Z,44.40
2022-07-26T13:21:13.552Z,44.30
2022-07-26T13:26:16.016Z,44.60
2022-07-26T13:31:19.050Z,45.00
2022-07-26T13:36:23.248Z,44.60
2022-07-26T13:41:25.839Z,44.10
2022-07-26T13:46:33.719Z,44.60
2022-07-26T13:51:42.224Z,45.30
2022-07-26T13:56:45.445Z,45.00
2022-07-26T14:01:48.437Z,45.00
2022-07-26T14:06:52.886Z,44.80
2022-07-26T14:11:55.431Z,44.40
2022-07-26T14:16:58.074Z,44.20
2022-07-26T14:22:02.011Z,44.00
2022-07-26T14:27:04.676Z,43.80
2022-07-26T14:32:07.759Z,44.10
2022-07-26T14:37:44.264Z,44.30
2022-07-26T14:42:34.278Z,44.40
2022-07-26T14:47:36.774Z,44.70
2022-07-26T14:52:44.977Z,44.30
2022-07-26T14:57:48.055Z,44.10
2022-07-26T15:02:50.642Z,44.70
2022-07-26T15:07:54.825Z,44.80
2022-07-26T15:12:58.113Z,44.60
2022-07-26T15:18:00.582Z,43.90
2022-07-26T15:23:06.514Z,43.80
2022-07-26T15:28:11.176Z,43.90
2022-07-26T15:33:13.698Z,44.10
2022-07-26T15:38:17.489Z,44.40
2022-07-26T15:43:22.633Z,44.60
2022-07-26T15:48:45.013Z,44.30
2022-07-26T15:53:49.309Z,44.00
2022-07-26T15:58:51.658Z,44.40
2022-07-26T16:03:54.085Z,44.50
2022-07-26T16:14:20.253Z,44.50
2022-07-26T16:19:22.950Z,44.70
2022-07-26T16:24:26.859Z,44.90
2022-07-26T16:29:29.303Z,44.70
2022-07-26T16:34:31.785Z,44.50
2022-07-26T16:39:35.717Z,44.50
2022-07-26T16:44:38.184Z,44.70
2022-07-26T16:49:40.655Z,45.10
2022-07-26T16:54:44.513Z,45.40
2022-07-26T16:59:46.948Z,45.70
2022-07-26T17:04:49.339Z,45.80
2022-07-26T17:09:53.439Z,46.00
2022-07-26T17:14:56.598Z,46.50
2022-07-26T17:19:59.003Z,47.10
2022-07-26T17:25:02.850Z,47.70
2022-07-26T17:30:07.377Z,48.00
2022-07-26T17:35:10.416Z,48.10
2022-07-26T17:40:14.536Z,48.30
2022-07-26T17:45:19.186Z,48.20
2022-07-26T17:50:38.394Z,48.20
2022-07-26T17:55:42.907Z,48.10
2022-07-26T18:00:45.708Z,48.30
2022-07-26T18:05:48.087Z,48.80
2022-07-26T18:10:52.680Z,49.10
2022-07-26T18:15:57.363Z,49.60
2022-07-26T18:20:59.989Z,49.70
2022-07-26T18:26:04.608Z,49.80
2022-07-26T18:31:07.046Z,50.00
2022-07-26T18:36:13.249Z,49.90
2022-07-26T18:41:17.241Z,50.10
2022-07-26T18:46:19.709Z,50.60
2022-07-26T18:51:22.347Z,50.70
2022-07-26T18:56:30.777Z,51.00
2022-07-26T19:01:33.391Z,51.20
2022-07-26T19:06:35.973Z,51.40
2022-07-26T19:11:41.583Z,51.70
2022-07-26T19:16:44.892Z,52.20
2022-07-26T19:21:47.372Z,52.30
2022-07-26T19:26:51.283Z,52.50
2022-07-26T19:31:53.671Z,52.90
2022-07-26T19:36:56.391Z,53.00
2022-07-26T19:42:00.991Z,53.30
2022-07-26T19:47:03.434Z,53.60
2022-07-26T19:52:11.350Z,53.70
2022-07-26T19:57:16.294Z,53.90
2022-07-26T20:02:18.832Z,54.40
2022-07-26T20:07:21.333Z,54.40
2022-07-26T20:12:25.199Z,54.60
2022-07-26T20:17:27.609Z,54.90
2022-07-26T20:22:30.144Z,55.10
2022-07-26T20:27:34.028Z,55.20
2022-07-26T20:32:36.374Z,55.40
2022-07-26T20:37:38.822Z,55.50
2022-07-26T20:42:44.233Z,55.60
2022-07-26T20:47:47.039Z,55.90
2022-07-26T20:53:02.280Z,56.00
2022-07-26T20:58:06.741Z,56.50
2022-07-26T21:03:09.724Z,56.30
2022-07-26T21:08:12.689Z,56.40
2022-07-26T21:13:16.896Z,56.30
2022-07-26T21:18:19.316Z,56.50
2022-07-26T21:23:23.214Z,56.50
2022-07-26T21:28:27.562Z,56.70
2022-07-26T21:33:30.015Z,56.90
2022-07-26T21:38:34.126Z,56.90
2022-07-26T21:43:38.062Z,57.20
2022-07-26T21:48:41.276Z,57.30
2022-07-26T21:53:43.874Z,57.30
2022-07-26T21:58:47.807Z,57.40
2022-07-26T22:03:50.447Z,57.70
2022-07-26T22:08:53.026Z,57.80
2022-07-26T22:13:57.283Z,57.80
2022-07-26T22:18:59.664Z,58.00
2022-07-26T22:24:06.060Z,58.00
2022-07-26T22:29:10.600Z,58.30
2022-07-26T22:34:13.236Z,58.60
2022-07-26T22:39:15.806Z,58.50
2022-07-26T22:44:19.761Z,58.60
2022-07-26T22:49:22.373Z,58.80
2022-07-26T22:54:24.657Z,58.80
2022-07-26T22:59:28.465Z,58.80
2022-07-26T23:04:31.092Z,59.10
2022-07-26T23:09:34.019Z,58.90
2022-07-26T23:14:37.846Z,59.00
2022-07-26T23:19:40.542Z,59.10
2022-07-26T23:24:43.533Z,59.10
2022-07-26T23:29:48.025Z,59.30
2022-07-26T23:34:51.571Z,59.60
2022-07-26T23:39:53.909Z,59.50
2022-07-26T23:44:57.739Z,59.60
2022-07-26T23:50:00.167Z,59.90
2022-07-26T23:55:02.548Z,59.90
